Time;durP1;ratioP1;P1;durP2;ratioP2;P2;SDS_P1;SDS_P2;PMS_P1;PMS_P2;Temp;Humidity;BMP_temperature;BMP_pressure;BME280_temperature;BME280_humidity;BME280_pressure;Samples;Min_cycle;Max_cycle;Signal;HPM_P1;HPM_P2
2023/05/19 00:01:44;;;;;;;17.75;7.05;;;13.50;91.20;;;;;;4198215;28;20067;-53
2023/05/19 00:03:53;;;;;;;17.70;7.82;;;13.50;91.30;;;;;;4206907;28;20445;-54
2023/05/19 00:05:57;;;;;;;20.20;8.15;;;13.50;91.20;;;;;;4196657;28;20083;-53
2023/05/19 00:08:03;;;;;;;20.90;8.43;;;13.50;91.20;;;;;;4206315;28;20051;-55
2023/05/19 00:10:06;;;;;;;17.33;6.43;;;13.40;91.40;;;;;;4198388;28;20119;-57
2023/05/19 00:12:09;;;;;;;16.80;7.47;;;13.40;91.60;;;;;;4200636;28;20075;-57
2023/05/19 00:14:12;;;;;;;21.27;7.97;;;13.40;91.70;;;;;;4210884;28;20379;-55
2023/05/19 00:16:15;;;;;;;25.48;8.02;;;13.40;91.60;;;;;;4200121;28;20047;-56
2023/05/19 00:18:17;;;;;;;17.00;8.27;;;13.40;91.70;;;;;;4209208;28;20474;-56
2023/05/19 00:20:19;;;;;;;20.65;8.20;;;13.30;91.80;;;;;;4202963;28;20049;-56
2023/05/19 00:22:21;;;;;;;17.30;8.43;;;13.30;91.90;;;;;;4202302;28;20044;-56
2023/05/19 00:24:25;;;;;;;22.17;8.27;;;13.20;92.10;;;;;;4204771;28;20051;-56
2023/05/19 00:26:27;;;;;;;21.13;9.00;;;13.20;92.00;;;;;;4216845;28;20094;-61
2023/05/19 00:28:29;;;;;;;22.90;8.77;;;13.20;92.10;;;;;;4212724;28;20054;-58
2023/05/19 00:30:31;;;;;;;22.48;9.15;;;13.20;92.20;;;;;;4218004;28;20478;-56
2023/05/19 00:32:34;;;;;;;18.55;8.02;;;13.30;92.10;;;;;;4214923;28;20059;-57
2023/05/19 00:34:38;;;;;;;16.88;8.07;;;13.30;92.10;;;;;;4212495;28;20041;-53
2023/05/19 00:36:40;;;;;;;18.80;8.95;;;13.20;92.70;;;;;;4201476;28;20580;-53
2023/05/19 00:38:43;;;;;;;21.05;8.60;;;13.20;92.20;;;;;;4207108;28;20446;-53
2023/05/19 00:40:46;;;;;;;20.05;7.80;;;13.10;92.50;;;;;;4205145;28;20044;-52
2023/05/19 00:42:48;;;;;;;20.73;8.63;;;13.10;92.50;;;;;;4200625;28;20045;-66
2023/05/19 00:44:51;;;;;;;21.38;8.68;;;13.20;92.50;;;;;;4212613;28;20043;-53
2023/05/19 00:46:53;;;;;;;21.58;9.45;;;13.20;92.50;;;;;;4181991;28;20075;-54
2023/05/19 00:48:57;;;;;;;25.30;9.35;;;13.20;92.60;;;;;;4205953;28;20040;-56
2023/05/19 00:51:05;;;;;;;16.15;8.77;;;13.20;92.50;;;;;;4205388;28;20074;-57
2023/05/19 00:53:07;;;;;;;18.65;7.47;;;13.20;92.50;;;;;;4199931;28;20051;-55
2023/05/19 00:55:10;;;;;;;18.92;9.23;;;13.20;92.70;;;;;;4210983;28;20346;-57
2023/05/19 00:57:14;;;;;;;17.15;9.00;;;13.20;92.70;;;;;;4199448;28;20048;-56
2023/05/19 00:59:18;;;;;;;18.43;9.00;;;13.10;92.80;;;;;;4200296;28;20044;-56
2023/05/19 01:01:21;;;;;;;23.38;9.25;;;13.00;92.80;;;;;;4210468;28;20083;-60
2023/05/19 01:03:24;;;;;;;24.23;9.60;;;13.00;92.80;;;;;;4214998;28;20506;-57
2023/05/19 01:05:27;;;;;;;21.00;9.27;;;13.00;93.00;;;;;;4211979;28;20460;-58
2023/05/19 01:07:29;;;;;;;21.02;8.88;;;13.00;93.10;;;;;;4200020;28;20044;-56
2023/05/19 01:09:31;;;;;;;21.02;10.13;;;12.90;93.10;;;;;;4205007;28;20469;-56
2023/05/19 01:11:33;;;;;;;23.90;8.60;;;13.00;93.00;;;;;;4206466;28;20546;-57
2023/05/19 01:13:37;;;;;;;17.55;9.10;;;12.90;93.00;;;;;;4198397;28;20048;-56
2023/05/19 01:16:00;;;;;;;20.20;8.40;;;12.90;93.10;;;;;;4210515;28;20078;-56
2023/05/19 01:18:10;;;;;;;20.00;9.45;;;12.90;93.30;;;;;;4199285;28;20044;-56
2023/05/19 01:20:18;;;;;;;22.75;9.45;;;12.80;93.30;;;;;;4207826;28;20043;-57
2023/05/19 01:22:56;;;;;;;24.17;9.77;;;12.90;93.20;;;;;;4201146;28;20395;-56
2023/05/19 01:25:35;;;;;;;24.30;10.18;;;12.80;93.30;;;;;;4136607;28;20611;-56
2023/05/19 01:28:19;;;;;;;24.98;10.00;;;12.90;93.30;;;;;;4146130;28;20053;-57
2023/05/19 01:30:27;;;;;;;22.67;9.82;;;12.80;93.40;;;;;;4140879;28;20089;-52
2023/05/19 01:32:30;;;;;;;18.33;9.35;;;12.60;93.60;;;;;;4142816;28;20098;-52
2023/05/19 01:34:37;;;;;;;23.05;10.63;;;12.60;93.70;;;;;;4138544;28;20488;-56
2023/05/19 01:36:43;;;;;;;24.83;10.80;;;12.70;93.70;;;;;;4141932;28;20100;-55
2023/05/19 01:38:49;;;;;;;22.05;9.43;;;12.60;93.70;;;;;;4140194;28;20046;-53
2023/05/19 01:40:53;;;;;;;21.02;9.98;;;12.60;93.80;;;;;;4139323;28;20055;-54
2023/05/19 01:42:58;;;;;;;17.75;10.25;;;12.50;93.90;;;;;;4114933;28;20130;-54
2023/05/19 01:45:01;;;;;;;19.85;9.98;;;12.40;94.10;;;;;;4118595;28;20557;-52
2023/05/19 01:47:05;;;;;;;19.92;10.32;;;12.40;94.20;;;;;;4136572;28;20058;-53
2023/05/19 01:49:07;;;;;;;25.00;11.57;;;12.50;94.00;;;;;;4147822;28;20050;-54
2023/05/19 01:51:10;;;;;;;21.90;10.73;;;12.30;94.20;;;;;;4145486;28;20046;-58
2023/05/19 01:53:12;;;;;;;21.05;10.57;;;12.40;94.20;;;;;;4134896;28;20128;-53
2023/05/19 01:55:14;;;;;;;26.05;10.77;;;12.30;94.20;;;;;;4132872;28;20280;-53
2023/05/19 01:57:28;;;;;;;24.38;11.35;;;12.30;94.40;;;;;;4144829;28;20054;-56
2023/05/19 01:59:41;;;;;;;27.98;10.57;;;12.30;94.30;;;;;;4147293;28;20516;-56
2023/05/19 02:01:50;;;;;;;26.23;11.13;;;12.20;94.40;;;;;;4201913;28;20056;-56
2023/05/19 02:04:14;;;;;;;23.83;10.73;;;12.20;94.30;;;;;;4213841;28;20455;-66
2023/05/19 02:06:29;;;;;;;20.95;10.48;;;12.30;94.50;;;;;;4213071;28;20467;-56
2023/05/19 02:08:40;;;;;;;25.63;11.05;;;12.30;94.40;;;;;;4211488;28;20064;-59
2023/05/19 02:10:49;;;;;;;25.60;11.52;;;12.20;94.30;;;;;;4215024;28;20052;-56
2023/05/19 02:12:54;;;;;;;24.38;10.60;;;12.20;94.40;;;;;;4205240;28;20462;-55
2023/05/19 02:15:01;;;;;;;;;;;12.20;94.50;;;;;;4216211;28;20143;-57
2023/05/19 02:17:04;;;;;;;23.40;10.68;;;12.20;94.50;;;;;;4207160;28;20099;-56
2023/05/19 02:19:19;;;;;;;20.98;10.38;;;12.20;94.50;;;;;;4211585;28;20151;-56
2023/05/19 02:21:21;;;;;;;25.77;11.30;;;12.30;94.40;;;;;;4214636;28;20050;-56
2023/05/19 02:23:24;;;;;;;27.83;10.93;;;12.20;94.50;;;;;;4186469;28;20048;-62
2023/05/19 02:25:26;;;;;;;26.80;11.88;;;12.20;94.40;;;;;;4216344;28;20059;-54
2023/05/19 02:27:28;;;;;;;23.67;10.82;;;12.20;94.40;;;;;;4210375;28;20044;-56
2023/05/19 02:29:30;;;;;;;19.85;10.65;;;12.20;94.70;;;;;;4202138;28;20079;-58
2023/05/19 02:31:32;;;;;;;23.13;9.88;;;12.20;94.60;;;;;;4199446;28;20040;-55
2023/05/19 02:33:35;;;;;;;23.67;9.80;;;12.20;94.60;;;;;;4210281;28;20048;-64
2023/05/19 02:35:38;;;;;;;21.98;9.15;;;12.30;94.70;;;;;;4196612;28;20049;-58
2023/05/19 02:37:40;;;;;;;29.10;12.15;;;12.30;94.60;;;;;;4210032;28;20083;-57
2023/05/19 02:39:43;;;;;;;30.92;11.40;;;12.30;94.50;;;;;;4209565;28;20473;-56
2023/05/19 02:41:45;;;;;;;30.02;11.05;;;12.30;94.30;;;;;;4213478;28;20052;-59
2023/05/19 02:43:47;;;;;;;20.55;11.23;;;12.20;94.40;;;;;;4208308;28;20050;-56
2023/05/19 02:45:49;;;;;;;14.93;9.00;;;12.20;94.40;;;;;;4198065;28;20140;-59
2023/05/19 02:47:51;;;;;;;20.40;10.38;;;12.30;94.70;;;;;;4206102;28;20051;-61
2023/05/19 02:49:53;;;;;;;20.52;10.23;;;12.20;94.50;;;;;;4205011;28;20083;-56
2023/05/19 02:51:57;;;;;;;26.73;11.30;;;12.30;94.50;;;;;;4199158;28;20052;-57
2023/05/19 02:53:59;;;;;;;24.10;9.85;;;12.30;94.30;;;;;;4202375;28;20049;-57
2023/05/19 02:56:03;;;;;;;25.13;12.38;;;12.20;94.70;;;;;;4214486;28;20105;-57
2023/05/19 02:58:05;;;;;;;24.77;12.43;;;12.20;94.50;;;;;;4209580;28;20045;-56
2023/05/19 03:00:08;;;;;;;25.33;10.77;;;12.20;94.40;;;;;;4207111;28;20532;-57
2023/05/19 03:02:11;;;;;;;20.70;11.65;;;12.20;94.60;;;;;;4214495;28;20044;-56
2023/05/19 03:04:13;;;;;;;23.05;10.95;;;12.20;94.40;;;;;;4182698;28;20822;-57
2023/05/19 03:06:16;;;;;;;19.17;11.07;;;12.20;94.60;;;;;;4214840;28;20052;-56
2023/05/19 03:08:20;;;;;;;26.88;11.85;;;12.30;94.50;;;;;;4210311;28;20408;-56
2023/05/19 03:10:22;;;;;;;22.80;11.05;;;12.20;94.40;;;;;;4205730;28;20492;-57
2023/05/19 03:12:24;;;;;;;19.15;10.55;;;12.20;94.60;;;;;;4197554;28;20039;-55
2023/05/19 03:14:26;;;;;;;23.75;10.95;;;12.20;94.70;;;;;;4208129;28;20071;-56
2023/05/19 03:16:28;;;;;;;27.65;12.05;;;12.20;94.40;;;;;;4197417;28;20501;-55
2023/05/19 03:18:30;;;;;;;27.90;12.63;;;12.20;94.50;;;;;;4199638;28;20489;-56
2023/05/19 03:20:34;;;;;;;22.92;11.88;;;12.20;94.50;;;;;;4206871;28;20055;-56
2023/05/19 03:22:35;;;;;;;20.33;10.88;;;12.10;94.70;;;;;;4197434;28;20045;-55
2023/05/19 03:24:39;;;;;;;30.05;13.43;;;12.00;94.70;;;;;;4206636;28;20412;-54
2023/05/19 03:26:41;;;;;;;21.85;11.20;;;12.00;94.70;;;;;;4209721;28;20144;-55
2023/05/19 03:28:43;;;;;;;22.85;11.20;;;12.00;94.70;;;;;;4209308;28;20124;-55
2023/05/19 03:30:48;;;;;;;25.30;11.52;;;11.90;94.80;;;;;;4207593;28;20083;-55
2023/05/19 03:32:50;;;;;;;25.92;11.20;;;12.00;94.70;;;;;;4196164;28;20387;-55
2023/05/19 03:34:53;;;;;;;23.92;11.75;;;12.00;94.70;;;;;;4201096;28;20151;-54
2023/05/19 03:36:55;;;;;;;25.83;12.80;;;12.00;94.80;;;;;;4211237;28;20472;-55
2023/05/19 03:38:57;;;;;;;23.83;12.52;;;12.00;94.80;;;;;;4204238;28;20071;-56
2023/05/19 03:41:01;;;;;;;22.73;11.45;;;11.80;94.80;;;;;;4208060;28;20053;-57
2023/05/19 03:43:03;;;;;;;26.15;12.13;;;11.80;95.10;;;;;;4196304;28;20064;-56
2023/05/19 03:45:06;;;;;;;19.08;10.63;;;12.00;95.00;;;;;;4187306;28;20441;-56
2023/05/19 03:47:09;;;;;;;24.90;12.30;;;11.90;94.80;;;;;;4199643;28;20119;-55
2023/05/19 03:49:12;;;;;;;27.20;12.80;;;11.90;94.90;;;;;;4198113;28;20097;-56
2023/05/19 03:51:14;;;;;;;24.40;12.25;;;11.90;94.90;;;;;;4207927;28;20094;-56
2023/05/19 03:53:16;;;;;;;23.92;12.27;;;11.90;95.10;;;;;;4196086;28;20057;-54
2023/05/19 03:55:19;;;;;;;22.58;11.73;;;11.90;94.90;;;;;;4204336;28;20040;-55
2023/05/19 03:57:22;;;;;;;26.02;12.30;;;11.80;95.10;;;;;;4201560;28;20128;-57
2023/05/19 03:59:24;;;;;;;25.17;11.90;;;11.90;95.10;;;;;;4198040;28;20246;-54
2023/05/19 04:01:26;;;;;;;28.73;13.65;;;11.70;95.00;;;;;;4189971;28;20045;-56
2023/05/19 04:03:28;;;;;;;22.90;11.43;;;11.70;95.00;;;;;;4196687;28;20049;-57
2023/05/19 04:05:30;;;;;;;24.90;11.80;;;11.70;95.30;;;;;;4198263;28;20040;-60
2023/05/19 04:07:32;;;;;;;26.98;13.07;;;11.80;95.20;;;;;;4208102;28;20048;-57
2023/05/19 04:09:36;;;;;;;25.23;11.75;;;11.80;95.10;;;;;;4212435;28;20067;-56
2023/05/19 04:11:39;;;;;;;28.20;12.85;;;11.70;95.20;;;;;;4208779;28;20040;-55
2023/05/19 04:13:42;;;;;;;27.75;14.10;;;11.70;95.30;;;;;;4196792;28;20044;-56
2023/05/19 04:15:46;;;;;;;21.48;11.93;;;11.80;95.30;;;;;;4202761;28;20048;-57
2023/05/19 04:17:48;;;;;;;22.05;12.50;;;11.80;95.10;;;;;;4203238;28;20052;-55
2023/05/19 04:19:50;;;;;;;25.83;13.43;;;11.80;95.00;;;;;;4198320;28;20079;-55
2023/05/19 04:21:52;;;;;;;25.02;11.80;;;11.80;95.10;;;;;;4191248;28;20055;-59
2023/05/19 04:23:54;;;;;;;22.73;12.77;;;11.80;95.20;;;;;;4195962;28;20075;-53
2023/05/19 04:25:57;;;;;;;24.20;13.10;;;11.80;95.20;;;;;;4199385;28;20068;-55
2023/05/19 04:27:59;;;;;;;22.90;13.30;;;11.70;95.00;;;;;;4205737;28;20043;-57
2023/05/19 04:30:03;;;;;;;20.80;12.70;;;11.70;95.10;;;;;;4214500;28;20050;-66
2023/05/19 04:32:06;;;;;;;26.42;12.73;;;11.70;95.00;;;;;;4201860;28;20502;-53
2023/05/19 04:34:09;;;;;;;22.02;11.95;;;11.70;95.00;;;;;;4206618;28;20044;-52
2023/05/19 04:36:12;;;;;;;25.02;12.75;;;11.70;95.20;;;;;;4200852;28;20086;-55
2023/05/19 04:38:17;;;;;;;23.00;12.10;;;11.80;95.00;;;;;;4192497;28;20127;-56
2023/05/19 04:40:20;;;;;;;;;;;11.70;95.00;;;;;;4214630;28;20048;-60
2023/05/19 04:42:24;;;;;;;27.60;12.38;;;11.70;94.90;;;;;;4201967;28;19932;-53
2023/05/19 04:44:26;;;;;;;21.55;11.88;;;11.80;95.30;;;;;;4197090;28;20072;-53
2023/05/19 04:46:31;;;;;;;27.85;13.60;;;11.90;94.70;;;;;;4198945;28;20048;-53
2023/05/19 04:48:33;;;;;;;26.45;12.27;;;12.00;94.50;;;;;;4205198;28;20048;-53
2023/05/19 04:50:37;;;;;;;25.88;12.50;;;11.90;94.60;;;;;;4196678;28;20066;-53
2023/05/19 04:52:41;;;;;;;28.17;11.30;;;11.90;94.50;;;;;;4207727;28;20048;-53
2023/05/19 04:54:43;;;;;;;28.83;13.25;;;12.00;94.50;;;;;;4195824;28;20127;-53
2023/05/19 04:56:45;;;;;;;22.52;12.45;;;12.10;94.40;;;;;;4199742;28;20111;-53
2023/05/19 04:58:47;;;;;;;22.00;11.15;;;12.00;94.20;;;;;;4209356;28;20044;-54
2023/05/19 05:00:49;;;;;;;26.88;11.27;;;12.10;94.30;;;;;;4199299;28;20119;-53
2023/05/19 05:02:56;;;;;;;24.80;12.15;;;12.10;94.40;;;;;;4209931;28;20055;-57
2023/05/19 05:04:58;;;;;;;23.95;12.13;;;12.10;94.30;;;;;;4215352;28;20482;-55
2023/05/19 05:07:00;;;;;;;21.15;10.20;;;12.10;94.20;;;;;;4214143;28;20036;-53
2023/05/19 05:09:03;;;;;;;21.70;11.52;;;12.10;94.40;;;;;;4205851;28;20051;-56
2023/05/19 05:11:05;;;;;;;22.60;12.27;;;12.20;94.10;;;;;;4216391;28;20131;-53
2023/05/19 05:13:08;;;;;;;21.08;11.50;;;12.30;93.70;;;;;;4211041;28;20044;-54
2023/05/19 05:15:13;;;;;;;23.05;11.90;;;12.30;93.70;;;;;;4183283;28;20511;-52
2023/05/19 05:17:16;;;;;;;28.48;12.82;;;12.40;93.50;;;;;;4200451;28;20140;-57
2023/05/19 05:19:21;;;;;;;23.95;11.25;;;12.30;93.50;;;;;;4199274;28;20037;-55
2023/05/19 05:21:25;;;;;;;24.38;10.60;;;12.30;93.50;;;;;;4198869;28;20083;-55
2023/05/19 05:23:27;;;;;;;23.10;11.38;;;12.30;93.50;;;;;;4203415;28;20045;-55
2023/05/19 05:25:31;;;;;;;18.15;9.90;;;12.30;93.40;;;;;;4194637;28;20490;-55
2023/05/19 05:27:34;;;;;;;25.40;11.13;;;12.40;93.50;;;;;;4212176;28;20056;-56
2023/05/19 05:29:36;;;;;;;25.08;10.80;;;12.30;93.30;;;;;;4210293;28;20059;-56
2023/05/19 05:31:38;;;;;;;24.02;11.30;;;12.30;93.30;;;;;;4199077;28;20044;-56
2023/05/19 05:33:41;;;;;;;19.23;11.10;;;12.40;93.20;;;;;;4203310;28;20665;-53
2023/05/19 05:35:45;;;;;;;21.63;10.70;;;12.40;93.20;;;;;;4211835;28;20451;-52
2023/05/19 05:37:47;;;;;;;21.20;11.07;;;12.50;93.30;;;;;;4212993;28;20127;-52
2023/05/19 05:39:49;;;;;;;23.05;11.15;;;12.50;93.00;;;;;;4210133;28;20067;-53
2023/05/19 05:41:51;;;;;;;18.05;11.63;;;12.40;93.10;;;;;;4198653;28;20052;-52
2023/05/19 05:43:53;;;;;;;30.67;12.07;;;12.50;93.10;;;;;;4201211;28;20041;-54
2023/05/19 05:45:55;;;;;;;25.38;11.23;;;12.50;93.10;;;;;;4210613;28;20054;-53
2023/05/19 05:47:58;;;;;;;22.75;11.50;;;12.50;93.00;;;;;;4213637;28;20139;-53
2023/05/19 05:50:01;;;;;;;21.88;11.35;;;12.40;92.90;;;;;;4204249;28;20553;-53
2023/05/19 05:52:08;;;;;;;18.58;10.43;;;12.30;93.10;;;;;;4215862;28;20126;-52
2023/05/19 05:54:12;;;;;;;25.55;11.85;;;12.30;93.10;;;;;;4210509;28;20078;-53
2023/05/19 05:56:14;;;;;;;26.10;11.30;;;12.30;93.10;;;;;;4215594;28;20043;-55
2023/05/19 05:58:16;;;;;;;23.65;10.70;;;12.30;93.20;;;;;;4214958;28;20497;-60
2023/05/19 06:00:21;;;;;;;23.10;12.02;;;12.30;93.30;;;;;;4214193;28;20064;-56
2023/05/19 06:02:23;;;;;;;23.42;10.90;;;12.30;93.20;;;;;;4217079;28;20040;-59
2023/05/19 06:04:25;;;;;;;24.42;11.82;;;12.40;93.30;;;;;;4209583;28;20041;-56
2023/05/19 06:06:28;;;;;;;23.40;11.05;;;12.50;93.20;;;;;;4210095;28;20101;-56
2023/05/19 06:08:31;;;;;;;26.38;11.70;;;12.60;92.90;;;;;;4213950;28;20044;-55
2023/05/19 06:10:35;;;;;;;21.13;11.10;;;12.60;92.80;;;;;;4204811;28;20051;-55
2023/05/19 06:12:39;;;;;;;20.48;9.38;;;12.60;92.80;;;;;;4217330;28;20134;-57
2023/05/19 06:14:41;;;;;;;21.20;9.60;;;12.60;92.90;;;;;;4210331;28;20106;-56
2023/05/19 06:16:43;;;;;;;24.95;11.82;;;12.60;92.90;;;;;;4208618;28;20074;-55
2023/05/19 06:18:46;;;;;;;22.08;11.25;;;12.70;92.60;;;;;;4197284;28;20045;-55
2023/05/19 06:20:48;;;;;;;20.10;11.10;;;12.60;92.60;;;;;;4185355;28;20098;-55
2023/05/19 06:22:50;;;;;;;20.52;11.15;;;12.70;92.60;;;;;;4215450;28;20116;-54
2023/05/19 06:24:53;;;;;;;23.95;11.13;;;12.70;92.60;;;;;;4209642;28;20058;-54
2023/05/19 06:26:56;;;;;;;18.83;9.48;;;12.70;92.40;;;;;;4210904;28;20044;-57
2023/05/19 06:28:58;;;;;;;18.52;10.77;;;12.60;92.80;;;;;;4215062;28;20464;-55
2023/05/19 06:30:59;;;;;;;27.95;11.68;;;12.70;92.60;;;;;;4203178;28;20397;-54
2023/05/19 06:33:02;;;;;;;20.70;10.93;;;12.70;92.60;;;;;;4216379;28;20052;-53
2023/05/19 06:35:05;;;;;;;23.88;11.00;;;12.70;92.50;;;;;;4203275;28;20111;-53
2023/05/19 06:37:07;;;;;;;22.27;10.65;;;12.80;92.30;;;;;;4209556;28;20047;-57
2023/05/19 06:39:10;;;;;;;23.60;11.52;;;12.80;92.50;;;;;;4212494;28;20044;-54
2023/05/19 06:41:14;;;;;;;28.77;11.60;;;12.80;92.50;;;;;;4211716;28;20512;-52
2023/05/19 06:43:16;;;;;;;26.65;11.10;;;12.80;92.30;;;;;;4199101;28;20105;-54
2023/05/19 06:45:21;;;;;;;23.25;11.05;;;12.80;92.40;;;;;;4198709;28;20040;-54
2023/05/19 06:47:23;;;;;;;20.15;10.52;;;12.90;92.30;;;;;;4207802;28;20044;-59
2023/05/19 06:49:28;;;;;;;20.67;10.73;;;13.00;92.20;;;;;;4198154;28;20118;-55
2023/05/19 06:51:30;;;;;;;;;;;13.10;92.10;;;;;;4209628;28;20090;-53
2023/05/19 06:53:33;;;;;;;20.60;11.30;;;13.10;92.00;;;;;;4200176;28;19920;-58
2023/05/19 06:55:37;;;;;;;23.20;10.27;;;13.10;92.10;;;;;;4199467;28;20119;-53
2023/05/19 06:58:00;;;;;;;24.67;11.27;;;13.20;92.00;;;;;;4206017;28;20072;-53
2023/05/19 07:00:02;;;;;;;22.60;10.07;;;13.40;92.00;;;;;;4197579;28;20048;-56
2023/05/19 07:02:05;;;;;;;32.00;11.10;;;13.50;91.60;;;;;;4201604;28;20127;-56
2023/05/19 07:04:07;;;;;;;19.75;10.18;;;13.50;91.60;;;;;;4196447;28;20095;-57
2023/05/19 07:06:12;;;;;;;16.40;9.93;;;13.80;91.40;;;;;;4200604;28;20044;-53
2023/05/19 07:08:15;;;;;;;21.77;9.77;;;14.00;91.40;;;;;;4205754;28;20068;-52
2023/05/19 07:10:17;;;;;;;23.70;10.98;;;14.20;91.30;;;;;;4197218;28;20048;-52
2023/05/19 07:12:19;;;;;;;21.88;9.63;;;14.40;90.90;;;;;;4209075;28;20381;-53
2023/05/19 07:14:23;;;;;;;17.88;8.80;;;14.50;90.30;;;;;;4197112;28;20068;-55
2023/05/19 07:16:25;;;;;;;26.65;9.95;;;14.60;90.80;;;;;;4181984;28;20082;-52
2023/05/19 07:18:30;;;;;;;21.00;9.43;;;14.70;90.50;;;;;;4206910;28;20042;-54
2023/05/19 07:20:32;;;;;;;26.85;9.68;;;14.90;90.30;;;;;;4196227;28;20054;-53
2023/05/19 07:22:35;;;;;;;18.98;8.38;;;15.10;90.10;;;;;;4208014;28;20109;-53
2023/05/19 07:24:37;;;;;;;22.60;9.88;;;15.10;90.00;;;;;;4197200;28;20498;-54
2023/05/19 07:26:41;;;;;;;24.33;10.68;;;15.20;89.90;;;;;;4203409;28;20470;-54
2023/05/19 07:28:43;;;;;;;24.27;9.32;;;15.40;90.00;;;;;;4207523;28;20048;-52
2023/05/19 07:30:48;;;;;;;28.98;10.05;;;15.50;89.00;;;;;;4197149;28;20040;-53
2023/05/19 07:32:50;;;;;;;22.08;9.50;;;15.50;88.90;;;;;;4200715;28;20067;-55
2023/05/19 07:34:53;;;;;;;22.48;9.20;;;15.40;88.30;;;;;;4197745;28;20071;-51
2023/05/19 07:36:55;;;;;;;15.88;8.00;;;15.50;88.00;;;;;;4198428;28;20040;-51
2023/05/19 07:38:57;;;;;;;19.42;10.05;;;15.60;89.50;;;;;;4207465;28;20097;-56
2023/05/19 07:40:59;;;;;;;21.85;8.52;;;15.80;89.10;;;;;;4195730;28;20052;-52
2023/05/19 07:43:02;;;;;;;19.15;8.43;;;15.90;88.90;;;;;;4204561;28;20084;-51
2023/05/19 07:45:07;;;;;;;;;;;16.00;89.00;;;;;;4192766;28;20383;-56
2023/05/19 07:47:10;;;;;;;25.73;10.48;;;15.90;88.30;;;;;;4212339;28;19954;-56
2023/05/19 07:49:12;;;;;;;29.67;9.43;;;16.00;87.70;;;;;;4203106;28;20101;-56
2023/05/19 07:51:15;;;;;;;21.88;9.18;;;16.10;87.30;;;;;;4215015;28;20051;-57
2023/05/19 07:53:17;;;;;;;22.48;9.65;;;16.20;87.20;;;;;;4214704;28;20052;-59
2023/05/19 07:55:21;;;;;;;25.00;9.50;;;16.20;87.10;;;;;;4201072;28;20049;-56
2023/05/19 07:57:24;;;;;;;27.67;9.48;;;16.30;87.40;;;;;;4200464;28;20036;-60
2023/05/19 07:59:26;;;;;;;23.05;8.20;;;16.40;87.80;;;;;;4208402;28;20063;-58
2023/05/19 08:01:29;;;;;;;21.00;9.13;;;16.40;88.10;;;;;;4196900;28;20044;-57
2023/05/19 08:03:32;;;;;;;27.48;9.68;;;16.50;87.90;;;;;;4204057;28;20064;-58
2023/05/19 08:05:35;;;;;;;25.00;9.35;;;16.60;88.00;;;;;;4200696;28;20055;-58
2023/05/19 08:07:37;;;;;;;16.83;8.55;;;16.60;87.00;;;;;;4198099;28;20073;-57
2023/05/19 08:09:39;;;;;;;24.90;8.80;;;16.50;86.50;;;;;;4202122;28;20049;-59
2023/05/19 08:11:41;;;;;;;21.50;9.38;;;16.60;87.40;;;;;;4213490;28;20051;-57
2023/05/19 08:13:46;;;;;;;18.45;7.90;;;16.60;87.60;;;;;;4207215;28;20044;-57
2023/05/19 08:15:48;;;;;;;21.33;7.82;;;16.70;87.30;;;;;;4207336;28;20052;-54
2023/05/19 08:17:50;;;;;;;17.40;7.70;;;16.70;87.50;;;;;;4213596;28;20074;-54
2023/05/19 08:19:54;;;;;;;15.93;7.78;;;16.70;87.80;;;;;;4210642;28;20110;-56
2023/05/19 08:21:59;;;;;;;14.45;6.68;;;16.70;87.10;;;;;;4214758;28;20059;-54
2023/05/19 08:24:02;;;;;;;24.35;9.38;;;16.80;87.60;;;;;;4206661;28;20135;-54
2023/05/19 08:26:04;;;;;;;23.33;9.48;;;16.70;86.50;;;;;;4207997;28;20097;-54
2023/05/19 08:28:07;;;;;;;35.25;9.43;;;16.90;86.90;;;;;;4214285;28;20044;-56
2023/05/19 08:30:10;;;;;;;16.75;7.47;;;16.90;86.70;;;;;;4208399;28;20071;-57
2023/05/19 08:32:12;;;;;;;17.67;7.57;;;17.10;85.80;;;;;;4198274;28;20123;-58
2023/05/19 08:34:15;;;;;;;18.70;7.85;;;17.10;86.70;;;;;;4203554;28;20060;-58
2023/05/19 08:36:18;;;;;;;15.60;7.70;;;17.10;86.40;;;;;;4209231;28;20155;-55
2023/05/19 08:38:20;;;;;;;23.50;8.85;;;17.20;86.00;;;;;;4210611;28;20040;-56
2023/05/19 08:40:22;;;;;;;16.55;7.45;;;17.20;86.10;;;;;;4203698;28;20387;-57
2023/05/19 08:42:25;;;;;;;15.70;7.22;;;17.30;86.10;;;;;;4216434;28;20095;-55
2023/05/19 08:44:29;;;;;;;22.48;8.00;;;17.40;85.50;;;;;;4193640;28;20514;-56
2023/05/19 08:46:33;;;;;;;20.63;7.93;;;17.40;85.30;;;;;;4208082;28;20428;-57
2023/05/19 08:48:40;;;;;;;20.73;7.85;;;17.50;85.10;;;;;;4216480;28;20059;-56
2023/05/19 08:50:46;;;;;;;23.73;8.00;;;17.50;84.40;;;;;;4203786;28;20052;-56
2023/05/19 08:52:52;;;;;;;17.70;6.72;;;17.50;84.30;;;;;;4199265;28;20044;-56
2023/05/19 08:54:59;;;;;;;19.85;6.93;;;17.50;84.60;;;;;;4202267;28;20048;-56
2023/05/19 08:57:02;;;;;;;17.60;7.40;;;17.50;83.30;;;;;;4208960;28;20127;-62
2023/05/19 08:59:05;;;;;;;18.38;7.95;;;17.50;84.20;;;;;;4215789;28;20044;-56
2023/05/19 09:01:08;;;;;;;18.27;7.40;;;17.60;84.30;;;;;;4203440;28;20051;-56
2023/05/19 09:03:12;;;;;;;17.88;6.97;;;17.60;83.10;;;;;;4216128;28;20052;-57
2023/05/19 09:05:18;;;;;;;24.55;8.10;;;17.50;84.30;;;;;;4209832;28;20044;-57
2023/05/19 09:07:24;;;;;;;18.65;6.72;;;17.70;84.50;;;;;;4207979;28;20393;-58
2023/05/19 09:09:28;;;;;;;15.98;6.65;;;17.80;83.90;;;;;;4215954;28;20044;-61
2023/05/19 09:11:30;;;;;;;16.90;7.82;;;17.70;82.80;;;;;;4210538;28;20041;-58
2023/05/19 09:13:32;;;;;;;23.30;7.32;;;17.70;82.90;;;;;;4199429;28;20075;-57
2023/05/19 09:15:37;;;;;;;15.25;6.05;;;17.70;83.80;;;;;;4184794;28;20048;-56
2023/05/19 09:17:40;;;;;;;19.35;6.53;;;17.80;84.30;;;;;;4206547;28;20052;-58
2023/05/19 09:19:43;;;;;;;16.83;5.90;;;18.00;84.40;;;;;;4199331;28;20045;-58
2023/05/19 09:21:45;;;;;;;18.35;6.80;;;18.00;84.30;;;;;;4192979;28;20048;-57
2023/05/19 09:23:48;;;;;;;27.10;5.93;;;18.20;83.90;;;;;;4198793;28;20079;-57
2023/05/19 09:25:52;;;;;;;15.13;7.07;;;18.10;83.70;;;;;;4204137;28;20505;-56
2023/05/19 09:27:55;;;;;;;21.38;7.13;;;18.30;83.60;;;;;;4207261;28;20099;-56
2023/05/19 09:30:07;;;;;;;16.50;6.28;;;18.40;82.70;;;;;;4199102;28;20044;-56
2023/05/19 09:32:09;;;;;;;15.63;5.93;;;18.30;83.60;;;;;;4203143;28;20044;-57
2023/05/19 09:34:12;;;;;;;14.57;6.55;;;18.20;82.40;;;;;;4206917;28;20461;-59
2023/05/19 09:36:14;;;;;;;18.20;6.65;;;18.40;83.80;;;;;;4202154;28;20139;-57
2023/05/19 09:38:17;;;;;;;12.88;5.68;;;18.50;81.90;;;;;;4212380;28;20063;-56
2023/05/19 09:40:19;;;;;;;13.63;5.60;;;18.50;81.50;;;;;;4216721;28;20127;-55
2023/05/19 09:42:28;;;;;;;14.88;5.38;;;18.30;80.80;;;;;;4204016;28;20105;-54
2023/05/19 09:44:31;;;;;;;11.70;4.72;;;18.40;81.30;;;;;;4179425;28;20399;-55
2023/05/19 09:46:35;;;;;;;10.85;4.75;;;18.70;81.90;;;;;;4203082;28;20391;-56
2023/05/19 09:48:37;;;;;;;17.98;6.05;;;18.80;80.60;;;;;;4207198;28;20456;-53
2023/05/19 09:50:41;;;;;;;10.52;4.50;;;18.90;81.40;;;;;;4215189;28;20052;-54
2023/05/19 09:52:43;;;;;;;22.95;5.97;;;19.00;81.50;;;;;;4203121;28;20057;-54
2023/05/19 09:54:47;;;;;;;19.92;5.43;;;19.00;80.70;;;;;;4214423;28;20051;-55
2023/05/19 09:56:57;;;;;;;14.07;5.70;;;19.00;80.10;;;;;;4193768;28;20103;-56
2023/05/19 09:59:02;;;;;;;22.20;5.32;;;19.00;79.90;;;;;;4207059;28;20098;-56
2023/05/19 10:01:05;;;;;;;12.05;4.30;;;19.20;80.20;;;;;;4215261;28;20135;-55
2023/05/19 10:03:08;;;;;;;12.43;3.65;;;19.40;79.10;;;;;;4210621;28;20056;-56
2023/05/19 10:05:15;;;;;;;11.40;3.53;;;19.40;75.90;;;;;;4196944;28;20463;-56
2023/05/19 10:07:20;;;;;;;17.20;4.30;;;19.20;76.50;;;;;;4202622;28;20040;-58
2023/05/19 10:09:26;;;;;;;9.98;3.88;;;19.20;77.30;;;;;;4205989;28;20074;-57
2023/05/19 10:11:29;;;;;;;14.75;4.15;;;19.20;78.60;;;;;;4180617;28;20041;-55
2023/05/19 10:13:34;;;;;;;11.88;3.63;;;19.20;77.40;;;;;;4202516;28;20120;-55
2023/05/19 10:15:39;;;;;;;11.35;4.03;;;19.30;78.30;;;;;;4214150;28;20044;-55
2023/05/19 10:18:01;;;;;;;21.83;4.60;;;19.40;77.40;;;;;;4207658;28;20044;-57
2023/05/19 10:20:05;;;;;;;13.18;3.75;;;19.60;76.80;;;;;;4209852;28;20044;-55
2023/05/19 10:22:07;;;;;;;12.27;3.85;;;19.70;77.10;;;;;;4213345;28;20052;-54
2023/05/19 10:24:10;;;;;;;9.35;3.20;;;19.80;76.90;;;;;;4185751;28;20059;-54
2023/05/19 10:26:14;;;;;;;19.50;3.78;;;19.70;74.60;;;;;;4214924;28;20047;-56
2023/05/19 10:28:20;;;;;;;12.60;3.60;;;19.60;75.70;;;;;;4210613;28;20044;-57
2023/05/19 10:30:27;;;;;;;16.85;4.28;;;19.40;76.00;;;;;;4203092;28;20131;-58
2023/05/19 10:32:32;;;;;;;12.93;4.30;;;19.20;77.20;;;;;;4199169;28;20189;-55
2023/05/19 10:35:00;;;;;;;12.55;3.85;;;19.40;76.20;;;;;;4208956;28;20477;-54